createdAt,value
2018-06-24T00:00:15.580Z,56.50
2018-06-24T00:02:43.289Z,56.40
2018-06-24T00:05:10.676Z,56.20
2018-06-24T00:07:38.072Z,56.20
2018-06-24T00:10:05.584Z,57.20
2018-06-24T00:12:32.979Z,57.30
2018-06-24T00:15:00.360Z,56.70
2018-06-24T00:17:27.774Z,56.80
2018-06-24T00:19:55.155Z,56.60
2018-06-24T00:22:22.568Z,57.30
2018-06-24T00:24:49.950Z,56.50
2018-06-24T00:29:44.725Z,57.00
2018-06-24T00:32:12.179Z,57.00
2018-06-24T00:34:39.555Z,56.90
2018-06-24T00:37:07.012Z,56.90
2018-06-24T00:39:34.383Z,57.20
2018-06-24T00:42:01.791Z,57.50
2018-06-24T00:44:29.195Z,57.60
2018-06-24T00:49:23.975Z,57.60
2018-06-24T00:51:51.431Z,57.60
2018-06-24T00:54:18.825Z,58.40
2018-06-24T00:56:46.215Z,57.80
2018-06-24T00:59:25.318Z,58.00
2018-06-24T01:01:52.715Z,57.80
2018-06-24T01:04:20.144Z,57.80
2018-06-24T01:06:47.547Z,57.90
2018-06-24T01:09:14.947Z,57.80
2018-06-24T01:11:42.331Z,57.70
2018-06-24T01:14:09.715Z,58.10
2018-06-24T01:16:37.411Z,58.20
2018-06-24T01:19:04.851Z,58.20
2018-06-24T01:21:32.296Z,58.30
2018-06-24T01:23:59.679Z,58.50
2018-06-24T01:26:27.091Z,58.40
2018-06-24T01:28:54.490Z,58.40
2018-06-24T01:31:21.919Z,58.50
2018-06-24T01:36:16.755Z,58.60
2018-06-24T01:38:44.146Z,58.60
2018-06-24T01:41:11.531Z,58.70
2018-06-24T01:43:38.917Z,59.30
2018-06-24T01:46:06.365Z,58.70
2018-06-24T01:48:33.781Z,58.90
2018-06-24T01:51:01.147Z,58.60
2018-06-24T01:53:28.578Z,58.70
2018-06-24T01:55:55.985Z,58.60
2018-06-24T01:58:23.371Z,58.70
2018-06-24T02:00:50.795Z,58.60
2018-06-24T02:03:18.197Z,58.70
2018-06-24T02:05:45.607Z,58.80
2018-06-24T02:08:13.042Z,59.10
2018-06-24T02:10:40.463Z,59.00
2018-06-24T02:13:07.886Z,59.00
2018-06-24T02:15:35.342Z,59.20
2018-06-24T02:18:02.759Z,59.10
2018-06-24T02:20:30.155Z,59.00
2018-06-24T02:22:57.559Z,59.10
2018-06-24T02:25:24.967Z,59.00
2018-06-24T02:27:52.367Z,58.90
2018-06-24T02:30:19.811Z,58.70
2018-06-24T02:32:47.199Z,58.50
2018-06-24T02:35:14.588Z,58.50
2018-06-24T02:37:41.987Z,58.70
2018-06-24T02:40:09.401Z,58.60
2018-06-24T02:42:36.803Z,58.50
2018-06-24T02:45:04.375Z,58.60
2018-06-24T02:47:31.825Z,58.80
2018-06-24T02:49:59.225Z,58.90
2018-06-24T02:52:26.697Z,59.20
2018-06-24T02:54:54.104Z,59.20
2018-06-24T02:57:21.531Z,59.40
2018-06-24T02:59:48.922Z,60.20
2018-06-24T03:02:16.323Z,59.60
2018-06-24T03:04:43.735Z,59.60
2018-06-24T03:07:11.139Z,59.60
2018-06-24T03:09:38.569Z,59.50
2018-06-24T03:12:06.016Z,59.30
2018-06-24T03:17:00.807Z,59.50
2018-06-24T03:19:28.245Z,59.50
2018-06-24T03:21:55.631Z,60.20
2018-06-24T03:24:23.007Z,59.60
2018-06-24T03:26:50.543Z,60.00
2018-06-24T03:29:17.992Z,59.50
2018-06-24T03:31:45.372Z,59.50
2018-06-24T03:34:12.791Z,59.80
2018-06-24T03:36:40.273Z,59.50
2018-06-24T03:39:09.440Z,59.50
2018-06-24T03:41:36.900Z,59.70
2018-06-24T03:44:04.339Z,59.60
2018-06-24T03:46:31.751Z,59.60
2018-06-24T03:48:59.154Z,59.70
2018-06-24T03:51:26.542Z,59.70
2018-06-24T03:53:53.955Z,59.80
2018-06-24T03:56:21.387Z,59.90
2018-06-24T03:58:48.812Z,60.10
2018-06-24T04:01:16.199Z,60.10
2018-06-24T04:03:43.652Z,60.30
2018-06-24T04:06:11.031Z,60.80
2018-06-24T04:08:38.456Z,61.10
2018-06-24T04:11:05.934Z,62.00
2018-06-24T04:13:33.316Z,62.90
2018-06-24T04:16:03.574Z,63.40
2018-06-24T04:18:35.379Z,63.80
2018-06-24T04:21:02.836Z,64.50
2018-06-24T04:23:30.224Z,64.50
2018-06-24T04:25:57.967Z,64.20
2018-06-24T04:28:25.346Z,64.30
2018-06-24T04:30:52.751Z,64.40
2018-06-24T04:33:20.175Z,64.90
2018-06-24T04:35:47.571Z,64.70
2018-06-24T04:38:14.947Z,64.60
2018-06-24T04:40:42.414Z,64.70
2018-06-24T04:43:09.820Z,64.90
2018-06-24T04:45:37.206Z,65.00
2018-06-24T04:48:05.103Z,65.10
2018-06-24T04:50:32.536Z,65.10
2018-06-24T04:52:59.961Z,65.00
2018-06-24T04:55:27.383Z,65.10
2018-06-24T04:57:54.798Z,65.10
2018-06-24T05:00:22.244Z,65.20
2018-06-24T05:02:49.656Z,65.50
2018-06-24T05:05:17.034Z,65.40
2018-06-24T05:07:44.412Z,65.90
2018-06-24T05:10:11.818Z,65.20
2018-06-24T05:12:39.219Z,64.90
2018-06-24T05:15:06.630Z,65.10
2018-06-24T05:17:34.048Z,65.10
2018-06-24T05:20:01.467Z,64.90
2018-06-24T05:22:28.853Z,65.10
2018-06-24T05:24:56.243Z,65.30
2018-06-24T05:27:23.649Z,65.20
2018-06-24T05:29:51.088Z,65.20
2018-06-24T05:32:18.516Z,65.30
2018-06-24T05:34:45.966Z,65.80
2018-06-24T05:37:13.375Z,65.90
2018-06-24T05:39:40.787Z,65.40
2018-06-24T05:42:08.175Z,65.30
2018-06-24T05:44:35.579Z,65.00
2018-06-24T05:47:02.998Z,64.70
2018-06-24T05:49:30.390Z,64.90
2018-06-24T05:51:57.780Z,64.40
2018-06-24T05:54:26.003Z,64.50
2018-06-24T05:56:53.432Z,63.80
2018-06-24T05:59:20.835Z,63.10
2018-06-24T06:01:48.246Z,63.00
2018-06-24T06:04:15.633Z,63.40
2018-06-24T06:06:43.038Z,63.50
2018-06-24T06:09:11.648Z,63.00
2018-06-24T06:11:39.096Z,62.80
2018-06-24T06:14:06.516Z,61.90
2018-06-24T06:16:34.135Z,60.60
2018-06-24T06:19:02.010Z,60.20
2018-06-24T06:21:29.407Z,59.90
2018-06-24T06:23:56.799Z,59.40
2018-06-24T06:26:24.189Z,59.10
2018-06-24T06:28:51.555Z,59.30
2018-06-24T06:31:19.003Z,59.60
2018-06-24T06:33:46.455Z,59.30
2018-06-24T06:36:13.883Z,59.20
2018-06-24T06:38:41.371Z,59.10
2018-06-24T06:41:08.870Z,59.20
2018-06-24T06:43:36.324Z,60.10
2018-06-24T06:46:07.855Z,58.80
2018-06-24T06:48:35.279Z,59.00
2018-06-24T06:51:02.793Z,58.40
2018-06-24T06:53:30.158Z,58.20
2018-06-24T06:55:57.546Z,58.20
2018-06-24T06:58:25.763Z,57.50
2018-06-24T07:00:53.204Z,56.60
2018-06-24T07:03:20.620Z,56.40
2018-06-24T07:05:48.089Z,56.40
2018-06-24T07:08:15.544Z,56.20
2018-06-24T07:10:42.998Z,55.50
2018-06-24T07:13:10.450Z,55.00
2018-06-24T07:15:37.861Z,54.60
2018-06-24T07:18:05.283Z,54.90
2018-06-24T07:20:32.707Z,55.00
2018-06-24T07:23:00.162Z,54.60
2018-06-24T07:25:27.850Z,55.00
2018-06-24T07:27:55.307Z,55.80
2018-06-24T07:30:22.727Z,55.10
2018-06-24T07:32:50.147Z,54.90
2018-06-24T07:35:17.592Z,54.80
2018-06-24T07:37:45.023Z,54.70
2018-06-24T07:40:12.432Z,55.10
2018-06-24T07:42:39.825Z,54.90
2018-06-24T07:45:07.267Z,55.30
2018-06-24T07:47:34.667Z,53.90
2018-06-24T07:50:02.059Z,54.30
2018-06-24T07:52:29.495Z,54.30
2018-06-24T07:54:56.908Z,54.10
2018-06-24T07:57:24.316Z,53.90
2018-06-24T07:59:51.753Z,54.40
2018-06-24T08:02:19.196Z,54.60
2018-06-24T08:04:46.607Z,55.00
2018-06-24T08:07:14.075Z,54.80
2018-06-24T08:09:41.492Z,53.80
2018-06-24T08:12:08.954Z,52.60
2018-06-24T08:14:36.370Z,52.50
2018-06-24T08:17:03.839Z,52.60
2018-06-24T08:19:31.249Z,52.30
2018-06-24T08:21:58.829Z,51.80
2018-06-24T08:24:26.258Z,51.50
2018-06-24T08:26:53.735Z,51.80
2018-06-24T08:29:21.177Z,52.00
2018-06-24T08:31:48.599Z,51.70
2018-06-24T08:36:43.449Z,51.20
2018-06-24T08:39:11.224Z,51.50
2018-06-24T08:41:38.667Z,52.20
2018-06-24T08:44:06.871Z,51.30
2018-06-24T08:46:34.309Z,51.80
2018-06-24T08:49:01.688Z,51.50
2018-06-24T08:51:29.096Z,50.60
2018-06-24T08:53:56.511Z,50.30
2018-06-24T08:56:23.924Z,50.40
2018-06-24T08:58:51.352Z,50.60
2018-06-24T09:01:18.784Z,50.40
2018-06-24T09:03:46.172Z,49.80
2018-06-24T09:06:13.603Z,49.40
2018-06-24T09:08:41.040Z,49.40
2018-06-24T09:11:08.529Z,49.70
2018-06-24T09:13:35.983Z,49.70
2018-06-24T09:16:03.612Z,50.50
2018-06-24T09:18:31.015Z,50.30
2018-06-24T09:20:58.442Z,49.10
2018-06-24T09:23:25.848Z,48.60
2018-06-24T09:25:53.244Z,48.70
2018-06-24T09:28:20.651Z,47.80
2018-06-24T09:33:15.529Z,49.00
2018-06-24T09:35:42.959Z,49.00
2018-06-24T09:38:10.329Z,47.40
2018-06-24T09:40:37.744Z,48.30
2018-06-24T09:43:05.264Z,47.40
2018-06-24T09:45:32.680Z,47.80
2018-06-24T09:48:00.093Z,46.90
2018-06-24T09:50:27.543Z,46.10
2018-06-24T09:52:55.011Z,45.70
2018-06-24T09:55:22.404Z,45.60
2018-06-24T09:57:49.786Z,46.60
2018-06-24T10:00:22.232Z,46.10
2018-06-24T10:02:50.344Z,44.50
2018-06-24T10:05:17.784Z,44.20
2018-06-24T10:07:45.416Z,44.30
2018-06-24T10:10:12.895Z,45.70
2018-06-24T10:12:40.344Z,45.60
2018-06-24T10:15:08.114Z,46.00
2018-06-24T10:17:35.643Z,45.00
2018-06-24T10:20:03.351Z,45.00
2018-06-24T10:25:07.159Z,44.70
2018-06-24T10:27:34.555Z,43.90
2018-06-24T10:30:01.940Z,44.50
2018-06-24T10:32:29.388Z,45.10
2018-06-24T10:34:56.767Z,44.30
2018-06-24T10:37:24.161Z,45.20
2018-06-24T10:39:51.600Z,44.60
2018-06-24T10:42:19.011Z,44.70
2018-06-24T10:44:46.400Z,45.80
2018-06-24T10:47:13.847Z,45.80
2018-06-24T10:49:41.288Z,45.60
2018-06-24T10:52:09.621Z,46.20
2018-06-24T10:57:04.488Z,45.40
2018-06-24T10:59:31.914Z,45.60
2018-06-24T11:01:59.369Z,45.70
2018-06-24T11:04:26.739Z,45.10
2018-06-24T11:06:54.208Z,45.40
2018-06-24T11:09:21.612Z,45.50
2018-06-24T11:11:49.030Z,45.90
2018-06-24T11:14:16.485Z,46.00
2018-06-24T11:16:43.935Z,45.60
2018-06-24T11:19:11.350Z,45.90
2018-06-24T11:21:38.765Z,45.70
2018-06-24T11:24:06.244Z,47.00
2018-06-24T11:26:33.812Z,46.70
2018-06-24T11:29:01.546Z,46.80
2018-06-24T11:31:29.083Z,47.00
2018-06-24T11:33:56.464Z,47.00
2018-06-24T11:36:23.875Z,46.90
2018-06-24T11:38:51.285Z,47.30
2018-06-24T11:41:18.725Z,47.60
2018-06-24T11:43:46.184Z,48.00
2018-06-24T11:46:13.608Z,47.70
2018-06-24T11:48:41.002Z,47.00
2018-06-24T11:51:08.450Z,46.70
2018-06-24T11:53:35.924Z,47.00
2018-06-24T11:56:03.347Z,47.60
2018-06-24T11:58:30.754Z,47.30
2018-06-24T12:00:58.172Z,47.10
2018-06-24T12:03:25.579Z,47.30
2018-06-24T12:05:52.977Z,46.90
2018-06-24T12:08:20.415Z,46.40
2018-06-24T12:10:47.830Z,46.50
2018-06-24T12:13:15.316Z,46.50
2018-06-24T12:15:42.910Z,45.70
2018-06-24T12:18:10.376Z,46.50
2018-06-24T12:20:37.771Z,46.60
2018-06-24T12:23:05.240Z,46.20
2018-06-24T12:25:32.670Z,46.20
2018-06-24T12:28:00.091Z,46.30
2018-06-24T12:30:27.491Z,46.30
2018-06-24T12:32:54.877Z,46.60
2018-06-24T12:35:22.312Z,46.40
2018-06-24T12:37:49.776Z,46.70
2018-06-24T12:40:21.859Z,46.70
2018-06-24T12:42:49.299Z,46.90
2018-06-24T12:45:16.732Z,47.40
2018-06-24T12:47:44.336Z,47.50
2018-06-24T12:50:11.773Z,46.50
2018-06-24T12:52:39.206Z,46.50
2018-06-24T12:55:06.864Z,46.50
2018-06-24T12:57:34.275Z,47.10
2018-06-24T13:00:02.124Z,46.00
2018-06-24T13:02:29.175Z,45.40
2018-06-24T13:04:56.647Z,45.40
2018-06-24T13:07:24.057Z,45.30
2018-06-24T13:09:51.453Z,45.50
2018-06-24T13:12:18.892Z,45.80
2018-06-24T13:14:46.308Z,46.00
2018-06-24T13:17:13.811Z,46.30
2018-06-24T13:19:41.240Z,46.30
2018-06-24T13:22:08.749Z,46.50
2018-06-24T13:24:36.147Z,47.20
2018-06-24T13:27:03.604Z,47.20
2018-06-24T13:29:31.018Z,47.00
2018-06-24T13:31:58.495Z,47.40
2018-06-24T13:34:25.871Z,47.60
2018-06-24T13:36:53.277Z,47.00
2018-06-24T13:39:20.697Z,47.50
2018-06-24T13:41:48.223Z,47.50
2018-06-24T13:44:15.661Z,47.30
2018-06-24T13:46:43.146Z,46.60
2018-06-24T13:49:10.570Z,46.40
2018-06-24T13:51:37.996Z,45.90
2018-06-24T13:54:05.452Z,45.70
2018-06-24T13:56:32.839Z,45.80
2018-06-24T13:59:00.240Z,45.80
2018-06-24T14:01:27.653Z,45.50
2018-06-24T14:03:55.328Z,45.90
2018-06-24T14:06:22.723Z,46.30
2018-06-24T14:08:50.134Z,46.50
2018-06-24T14:11:17.546Z,47.10
2018-06-24T14:13:44.987Z,47.20
2018-06-24T14:16:12.400Z,47.30
2018-06-24T14:18:39.823Z,47.30
2018-06-24T14:21:07.259Z,48.20
2018-06-24T14:23:34.871Z,48.00
2018-06-24T14:26:02.136Z,48.30
2018-06-24T14:28:29.577Z,48.50
2018-06-24T14:30:56.957Z,48.60
2018-06-24T14:33:24.336Z,48.70
2018-06-24T14:35:51.751Z,48.80
2018-06-24T14:38:19.199Z,49.00
2018-06-24T14:40:46.616Z,49.20
2018-06-24T14:43:14.029Z,49.40
2018-06-24T14:45:41.481Z,49.30
2018-06-24T14:48:08.872Z,49.60
2018-06-24T14:50:36.272Z,50.40
2018-06-24T14:53:03.698Z,50.00
2018-06-24T14:55:31.111Z,50.40
2018-06-24T14:57:58.539Z,50.90
2018-06-24T15:00:25.956Z,51.40
2018-06-24T15:02:53.395Z,51.20
2018-06-24T15:05:20.760Z,51.30
2018-06-24T15:07:48.180Z,51.20
2018-06-24T15:10:15.635Z,51.30
2018-06-24T15:12:43.065Z,51.20
2018-06-24T15:15:10.498Z,51.40
2018-06-24T15:17:39.737Z,51.60
2018-06-24T15:20:07.397Z,51.40
2018-06-24T15:22:34.757Z,50.80
2018-06-24T15:25:02.197Z,50.70
2018-06-24T15:27:29.672Z,51.50
2018-06-24T15:29:57.124Z,50.50
2018-06-24T15:32:24.560Z,50.10
2018-06-24T15:34:51.970Z,50.00
2018-06-24T15:37:19.387Z,50.20
2018-06-24T15:39:46.817Z,50.40
2018-06-24T15:42:14.793Z,50.40
2018-06-24T15:44:42.345Z,50.60
2018-06-24T15:47:09.749Z,50.50
2018-06-24T15:49:37.147Z,50.60
2018-06-24T15:52:04.664Z,50.60
2018-06-24T15:54:32.083Z,50.50
2018-06-24T15:56:59.497Z,50.20
2018-06-24T15:59:26.886Z,50.90
2018-06-24T16:01:54.380Z,50.90
2018-06-24T16:04:21.790Z,51.00
2018-06-24T16:06:49.240Z,51.20
2018-06-24T16:09:16.639Z,51.00
2018-06-24T16:11:45.127Z,51.20
2018-06-24T16:14:12.523Z,51.30
2018-06-24T16:16:39.949Z,51.60
2018-06-24T16:19:07.568Z,51.80
2018-06-24T16:21:34.968Z,52.10
2018-06-24T16:24:02.404Z,52.20
2018-06-24T16:26:29.841Z,52.40
2018-06-24T16:28:57.248Z,53.40
2018-06-24T16:31:24.708Z,52.60
2018-06-24T16:36:19.585Z,52.50
2018-06-24T16:38:47.000Z,52.80
2018-06-24T16:41:14.431Z,52.70
2018-06-24T16:43:41.821Z,52.90
2018-06-24T16:46:09.227Z,52.90
2018-06-24T16:48:36.691Z,52.90
2018-06-24T16:51:04.119Z,53.40
2018-06-24T16:53:31.524Z,52.90
2018-06-24T16:55:58.926Z,52.90
2018-06-24T16:58:26.457Z,53.00
2018-06-24T17:00:53.879Z,53.70
2018-06-24T17:03:21.272Z,53.30
2018-06-24T17:05:48.716Z,53.50
2018-06-24T17:08:16.141Z,53.60
2018-06-24T17:10:43.740Z,53.60
2018-06-24T17:13:11.159Z,53.80
2018-06-24T17:15:38.656Z,54.00
2018-06-24T17:18:06.112Z,54.10
2018-06-24T17:20:33.519Z,53.80
2018-06-24T17:23:00.986Z,53.90
2018-06-24T17:27:55.795Z,53.90
2018-06-24T17:32:50.900Z,55.40
2018-06-24T17:35:18.279Z,55.60
2018-06-24T17:37:45.679Z,55.60
2018-06-24T17:42:47.377Z,56.10
2018-06-24T17:45:14.812Z,56.20
2018-06-24T17:47:42.456Z,56.40
2018-06-24T17:50:10.516Z,56.60
2018-06-24T17:52:38.839Z,56.90
2018-06-24T17:55:06.476Z,57.20
2018-06-24T17:57:33.929Z,57.20
2018-06-24T18:00:01.331Z,57.60
2018-06-24T18:02:28.723Z,58.30
2018-06-24T18:04:56.134Z,58.30
2018-06-24T18:07:23.586Z,58.40
2018-06-24T18:09:51.026Z,58.70
2018-06-24T18:12:18.663Z,59.20
2018-06-24T18:14:46.087Z,59.80
2018-06-24T18:17:13.500Z,60.00
2018-06-24T18:19:41.142Z,59.90
2018-06-24T18:22:08.501Z,60.20
2018-06-24T18:24:36.375Z,60.60
2018-06-24T18:27:04.766Z,60.40
2018-06-24T18:29:32.264Z,60.80
2018-06-24T18:31:59.656Z,60.60
2018-06-24T18:34:27.203Z,60.70
2018-06-24T18:36:54.633Z,60.90
2018-06-24T18:39:22.032Z,61.60
2018-06-24T18:41:49.451Z,60.70
2018-06-24T18:44:16.872Z,60.70
2018-06-24T18:46:44.299Z,60.60
2018-06-24T18:49:11.699Z,60.60
2018-06-24T18:54:06.548Z,60.40
2018-06-24T18:56:34.236Z,60.20
2018-06-24T18:59:01.676Z,60.00
2018-06-24T19:01:29.088Z,60.00
2018-06-24T19:06:23.896Z,59.60
2018-06-24T19:08:51.284Z,59.40
2018-06-24T19:11:18.684Z,59.20
2018-06-24T19:13:46.119Z,59.10
2018-06-24T19:16:13.531Z,58.90
2018-06-24T19:18:40.967Z,59.00
2018-06-24T19:21:08.386Z,59.10
2018-06-24T19:23:35.828Z,59.00
2018-06-24T19:26:03.267Z,59.30
2018-06-24T19:28:30.709Z,59.10
2018-06-24T19:30:58.199Z,59.50
2018-06-24T19:33:25.607Z,59.70
2018-06-24T19:35:52.999Z,59.80
2018-06-24T19:38:20.372Z,59.90
2018-06-24T19:40:47.778Z,59.90
2018-06-24T19:43:15.191Z,60.20
2018-06-24T19:45:42.784Z,60.40
2018-06-24T19:48:10.213Z,60.20
2018-06-24T19:50:37.628Z,60.30
2018-06-24T19:53:05.111Z,61.30
2018-06-24T19:55:32.567Z,61.40
2018-06-24T19:57:59.989Z,62.30
2018-06-24T20:02:54.827Z,63.50
2018-06-24T20:05:22.308Z,63.30
2018-06-24T20:07:49.751Z,64.00
2018-06-24T20:10:17.348Z,64.40
2018-06-24T20:12:44.839Z,64.60
2018-06-24T20:15:12.329Z,65.10
2018-06-24T20:17:39.761Z,65.40
2018-06-24T20:20:07.238Z,65.90
2018-06-24T20:22:34.708Z,65.90
2018-06-24T20:25:02.124Z,65.80
2018-06-24T20:27:29.572Z,65.40
2018-06-24T20:29:57.198Z,65.70
2018-06-24T20:32:24.615Z,66.00
2018-06-24T20:34:52.053Z,66.10
2018-06-24T20:37:19.440Z,65.80
2018-06-24T20:39:46.834Z,66.00
2018-06-24T20:42:14.275Z,66.10
2018-06-24T20:44:41.919Z,67.20
2018-06-24T20:47:09.335Z,66.20
2018-06-24T20:49:36.776Z,66.50
2018-06-24T20:52:04.394Z,66.80
2018-06-24T20:54:31.936Z,66.70
2018-06-24T20:56:59.338Z,66.80
2018-06-24T20:59:26.756Z,67.10
2018-06-24T21:01:54.150Z,67.10
2018-06-24T21:04:21.524Z,67.20
2018-06-24T21:06:48.913Z,67.40
2018-06-24T21:09:16.359Z,67.60
2018-06-24T21:11:43.700Z,68.50
2018-06-24T21:14:11.136Z,68.40
2018-06-24T21:16:38.543Z,68.40
2018-06-24T21:19:05.988Z,68.80
2018-06-24T21:21:33.651Z,68.50
2018-06-24T21:24:01.079Z,68.80
2018-06-24T21:26:28.556Z,69.20
2018-06-24T21:28:56.132Z,69.40
2018-06-24T21:31:23.558Z,69.00
2018-06-24T21:33:50.959Z,69.10
2018-06-24T21:36:18.408Z,69.20
2018-06-24T21:38:45.819Z,69.30
2018-06-24T21:41:13.207Z,69.00
2018-06-24T21:43:40.590Z,69.10
2018-06-24T21:46:08.025Z,69.00
2018-06-24T21:48:35.679Z,69.20
2018-06-24T21:51:03.128Z,68.80
2018-06-24T21:53:30.561Z,69.10
2018-06-24T21:55:58.037Z,68.70
2018-06-24T21:58:25.436Z,68.80
2018-06-24T22:00:53.463Z,68.50
2018-06-24T22:03:20.823Z,69.20
2018-06-24T22:05:48.195Z,69.20
2018-06-24T22:08:15.577Z,69.10
2018-06-24T22:10:42.972Z,69.50
2018-06-24T22:13:10.380Z,69.50
2018-06-24T22:15:37.779Z,69.60
2018-06-24T22:18:05.223Z,69.70
2018-06-24T22:20:32.627Z,69.90
2018-06-24T22:23:00.017Z,69.80
2018-06-24T22:25:27.555Z,69.80
2018-06-24T22:27:54.937Z,69.70
2018-06-24T22:30:22.345Z,69.50
2018-06-24T22:32:49.753Z,69.60
2018-06-24T22:35:17.156Z,69.40
2018-06-24T22:37:44.547Z,69.50
2018-06-24T22:40:11.983Z,69.50
2018-06-24T22:42:39.376Z,69.40
2018-06-24T22:45:06.752Z,69.40
2018-06-24T22:47:34.164Z,69.70
2018-06-24T22:50:01.554Z,69.50
2018-06-24T22:52:28.939Z,69.40
2018-06-24T22:54:56.347Z,69.70
2018-06-24T22:57:23.745Z,69.40
2018-06-24T23:00:02.647Z,69.50
2018-06-24T23:02:30.057Z,69.40
2018-06-24T23:04:57.391Z,69.30
2018-06-24T23:07:24.796Z,69.30
2018-06-24T23:09:52.207Z,69.00
2018-06-24T23:12:19.571Z,69.70
2018-06-24T23:14:46.991Z,69.30
2018-06-24T23:17:14.439Z,69.30
2018-06-24T23:19:41.812Z,69.30
2018-06-24T23:22:09.223Z,69.10
2018-06-24T23:24:36.624Z,69.40
2018-06-24T23:27:04.144Z,69.60
2018-06-24T23:29:31.601Z,69.80
2018-06-24T23:31:58.984Z,69.50
2018-06-24T23:34:26.367Z,69.80
2018-06-24T23:36:53.889Z,69.90
2018-06-24T23:39:21.287Z,69.80
2018-06-24T23:41:48.681Z,70.00
2018-06-24T23:44:16.079Z,70.10
2018-06-24T23:46:43.656Z,70.10
2018-06-24T23:49:11.134Z,69.90
2018-06-24T23:51:38.516Z,70.70
2018-06-24T23:54:05.987Z,69.80
2018-06-24T23:56:33.483Z,70.50
2018-06-24T23:59:00.864Z,70.90
